Lake Saint Louis, Missouri
Current Conditions -  °F | °C
As of 3:54 PM on Monday 22 Dec 2014 (Local Time) from KSUS Reporting Station
Light Rain Light Rain  
Wind Chill: 48°   Ceiling: 700
Heat Index: 48°   Visibility: 4mi
Dew Point: 46°   Wind: 0mph
Humidity: 93%   Direction: NA
Pressure: 29.54"   Gusts: NA
Location:  38.8°N, 90.79°W
Report Text: KSUS 222154Z 00000KT 4SM -RA BR BKN007 BKN016 OVC035 09/08 A2954 RMK AO2 SLP006 P0004 T00890078
Loading
Personal Weather Stations






























Interactive Weather Map New forecast layout! Learn more

10-Day Weather Forecast

Advertisements
Track Severe Weather on mobile